sensor_id;sensor_type;location;lat;lon;timestamp;pressure;altitude;pressure_sealevel;temperature;humidity
50087;BME280;35967;50.718;7.050;2023-04-24T00:03:58;99392.59;;;13.06;73.51
50087;BME280;35967;50.718;7.050;2023-04-24T00:14:03;99385.84;;;13.04;74.13
50087;BME280;35967;50.718;7.050;2023-04-24T00:24:06;99388.09;;;13.10;74.11
50087;BME280;35967;50.718;7.050;2023-04-24T00:34:12;99368.94;;;12.98;74.01
50087;BME280;35967;50.718;7.050;2023-04-24T00:44:16;99374.50;;;12.90;75.23
50087;BME280;35967;50.718;7.050;2023-04-24T00:54:20;99363.34;;;12.90;74.98
50087;BME280;35967;50.718;7.050;2023-04-24T01:04:25;99359.00;;;12.90;75.46
50087;BME280;35967;50.718;7.050;2023-04-24T01:14:30;99379.91;;;12.86;75.30
50087;BME280;35967;50.718;7.050;2023-04-24T01:24:35;99410.81;;;12.36;78.05
50087;BME280;35967;50.718;7.050;2023-04-24T01:34:38;99406.41;;;12.21;75.97
50087;BME280;35967;50.718;7.050;2023-04-24T01:44:44;99411.00;;;11.96;71.54
50087;BME280;35967;50.718;7.050;2023-04-24T01:54:47;99381.66;;;11.99;70.32
50087;BME280;35967;50.718;7.050;2023-04-24T02:04:52;99392.53;;;11.87;67.39
50087;BME280;35967;50.718;7.050;2023-04-24T02:14:55;99411.81;;;11.60;66.54
50087;BME280;35967;50.718;7.050;2023-04-24T02:25:00;99418.88;;;11.38;66.61
50087;BME280;35967;50.718;7.050;2023-04-24T02:35:03;99441.16;;;11.19;67.30
50087;BME280;35967;50.718;7.050;2023-04-24T02:45:09;99445.38;;;11.01;68.23
50087;BME280;35967;50.718;7.050;2023-04-24T02:55:13;99473.75;;;11.00;67.46
50087;BME280;35967;50.718;7.050;2023-04-24T03:05:18;99491.78;;;10.79;68.20
50087;BME280;35967;50.718;7.050;2023-04-24T03:15:21;99485.00;;;10.56;68.12
50087;BME280;35967;50.718;7.050;2023-04-24T03:25:26;99491.00;;;10.56;67.63
50087;BME280;35967;50.718;7.050;2023-04-24T03:35:30;99493.16;;;10.45;68.22
50087;BME280;35967;50.718;7.050;2023-04-24T03:45:38;99489.44;;;10.52;67.47
50087;BME280;35967;50.718;7.050;2023-04-24T03:55:42;99472.91;;;10.58;67.46
50087;BME280;35967;50.718;7.050;2023-04-24T04:05:47;99491.91;;;10.33;68.35
50087;BME280;35967;50.718;7.050;2023-04-24T04:15:50;99482.63;;;10.29;68.68
50087;BME280;35967;50.718;7.050;2023-04-24T04:25:55;99482.28;;;10.16;69.23
50087;BME280;35967;50.718;7.050;2023-04-24T04:36:05;99488.50;;;10.10;70.14
50087;BME280;35967;50.718;7.050;2023-04-24T04:46:17;99485.41;;;10.24;69.46
50087;BME280;35967;50.718;7.050;2023-04-24T04:56:34;99497.22;;;10.29;69.25
50087;BME280;35967;50.718;7.050;2023-04-24T05:06:40;99503.44;;;10.23;69.85
50087;BME280;35967;50.718;7.050;2023-04-24T05:16:43;99511.78;;;10.52;68.92
50087;BME280;35967;50.718;7.050;2023-04-24T05:26:49;99532.00;;;10.39;69.93
50087;BME280;35967;50.718;7.050;2023-04-24T05:36:58;99536.81;;;10.24;70.29
50087;BME280;35967;50.718;7.050;2023-04-24T05:47:03;99539.72;;;10.39;70.85
50087;BME280;35967;50.718;7.050;2023-04-24T05:57:06;99545.25;;;10.50;71.11
50087;BME280;35967;50.718;7.050;2023-04-24T06:07:25;99546.66;;;10.59;71.94
50087;BME280;35967;50.718;7.050;2023-04-24T06:17:30;99551.19;;;10.52;72.00
50087;BME280;35967;50.718;7.050;2023-04-24T06:27:35;99562.63;;;10.67;72.59
50087;BME280;35967;50.718;7.050;2023-04-24T06:37:39;99578.06;;;10.67;73.26
50087;BME280;35967;50.718;7.050;2023-04-24T06:47:44;99579.22;;;10.60;75.52
50087;BME280;35967;50.718;7.050;2023-04-24T06:57:48;99593.41;;;10.48;78.30
50087;BME280;35967;50.718;7.050;2023-04-24T07:07:53;99601.16;;;10.23;83.14
50087;BME280;35967;50.718;7.050;2023-04-24T07:17:56;99600.41;;;10.21;82.39
50087;BME280;35967;50.718;7.050;2023-04-24T07:28:00;99608.50;;;11.00;86.63
50087;BME280;35967;50.718;7.050;2023-04-24T07:38:03;99613.31;;;10.87;84.77
50087;BME280;35967;50.718;7.050;2023-04-24T07:48:08;99641.59;;;11.30;83.41
50087;BME280;35967;50.718;7.050;2023-04-24T07:58:12;99664.28;;;9.84;87.91
50087;BME280;35967;50.718;7.050;2023-04-24T08:08:17;99678.72;;;9.63;91.35
50087;BME280;35967;50.718;7.050;2023-04-24T08:18:20;99706.78;;;9.42;92.86
50087;BME280;35967;50.718;7.050;2023-04-24T08:28:25;99726.63;;;9.10;93.24
50087;BME280;35967;50.718;7.050;2023-04-24T08:38:28;99774.06;;;8.98;93.41
50087;BME280;35967;50.718;7.050;2023-04-24T08:48:32;99802.53;;;8.61;95.02
50087;BME280;35967;50.718;7.050;2023-04-24T08:58:35;99808.72;;;8.83;95.91
50087;BME280;35967;50.718;7.050;2023-04-24T09:08:40;99814.00;;;8.77;96.20
50087;BME280;35967;50.718;7.050;2023-04-24T09:18:44;99827.44;;;8.87;97.66
50087;BME280;35967;50.718;7.050;2023-04-24T09:28:48;99841.41;;;9.07;97.69
50087;BME280;35967;50.718;7.050;2023-04-24T09:38:53;99860.63;;;9.52;97.88
50087;BME280;35967;50.718;7.050;2023-04-24T09:49:08;99891.28;;;8.98;99.29
50087;BME280;35967;50.718;7.050;2023-04-24T09:59:12;99900.22;;;8.84;99.85
50087;BME280;35967;50.718;7.050;2023-04-24T10:09:18;99902.81;;;8.83;100.00
50087;BME280;35967;50.718;7.050;2023-04-24T10:19:25;99935.81;;;8.97;100.00
50087;BME280;35967;50.718;7.050;2023-04-24T10:29:31;99929.75;;;8.66;100.00
50087;BME280;35967;50.718;7.050;2023-04-24T10:39:34;99940.75;;;9.05;100.00
50087;BME280;35967;50.718;7.050;2023-04-24T10:49:40;99946.78;;;9.02;100.00
50087;BME280;35967;50.718;7.050;2023-04-24T10:59:44;99954.16;;;9.14;100.00
50087;BME280;35967;50.718;7.050;2023-04-24T11:09:58;99959.81;;;9.86;100.00
50087;BME280;35967;50.718;7.050;2023-04-24T11:20:03;99946.13;;;10.40;100.00
50087;BME280;35967;50.718;7.050;2023-04-24T11:30:29;99974.38;;;10.14;100.00
50087;BME280;35967;50.718;7.050;2023-04-24T11:40:33;99976.50;;;10.29;98.69
50087;BME280;35967;50.718;7.050;2023-04-24T11:50:38;99990.19;;;10.30;97.36
50087;BME280;35967;50.718;7.050;2023-04-24T12:00:42;99998.31;;;10.17;96.72
50087;BME280;35967;50.718;7.050;2023-04-24T12:10:51;100008.84;;;10.65;98.08
50087;BME280;35967;50.718;7.050;2023-04-24T12:20:54;100011.84;;;10.51;95.70
50087;BME280;35967;50.718;7.050;2023-04-24T12:31:03;99997.31;;;11.97;96.56
50087;BME280;35967;50.718;7.050;2023-04-24T12:41:07;100004.31;;;11.22;91.02
50087;BME280;35967;50.718;7.050;2023-04-24T12:51:13;100000.50;;;11.80;89.63
50087;BME280;35967;50.718;7.050;2023-04-24T13:01:16;100004.09;;;11.76;84.46
50087;BME280;35967;50.718;7.050;2023-04-24T13:11:21;100017.44;;;11.14;78.37
50087;BME280;35967;50.718;7.050;2023-04-24T13:21:24;100017.75;;;11.30;81.66
50087;BME280;35967;50.718;7.050;2023-04-24T13:31:29;100025.78;;;11.70;76.39
50087;BME280;35967;50.718;7.050;2023-04-24T13:41:33;100019.56;;;11.99;71.92
50087;BME280;35967;50.718;7.050;2023-04-24T13:51:39;100011.28;;;12.78;72.64
50087;BME280;35967;50.718;7.050;2023-04-24T14:01:42;100015.22;;;12.22;69.62
50087;BME280;35967;50.718;7.050;2023-04-24T14:11:48;100023.03;;;11.98;71.72
50087;BME280;35967;50.718;7.050;2023-04-24T14:21:51;100021.13;;;12.26;77.64
50087;BME280;35967;50.718;7.050;2023-04-24T14:31:55;100016.19;;;11.74;75.29
50087;BME280;35967;50.718;7.050;2023-04-24T14:41:58;100027.13;;;12.04;73.52
50087;BME280;35967;50.718;7.050;2023-04-24T14:52:03;100027.84;;;12.30;68.78
50087;BME280;35967;50.718;7.050;2023-04-24T15:02:06;100026.94;;;12.31;66.03
50087;BME280;35967;50.718;7.050;2023-04-24T15:12:16;100028.75;;;12.51;61.56
50087;BME280;35967;50.718;7.050;2023-04-24T15:22:38;100015.66;;;12.76;59.74
50087;BME280;35967;50.718;7.050;2023-04-24T15:32:43;100019.59;;;13.06;58.43
50087;BME280;35967;50.718;7.050;2023-04-24T15:42:46;100035.09;;;12.85;63.75
50087;BME280;35967;50.718;7.050;2023-04-24T15:52:50;100032.16;;;12.52;64.12
50087;BME280;35967;50.718;7.050;2023-04-24T16:02:53;100041.47;;;12.34;65.36
50087;BME280;35967;50.718;7.050;2023-04-24T16:12:58;100042.19;;;12.37;64.43
50087;BME280;35967;50.718;7.050;2023-04-24T16:23:04;100046.69;;;12.32;64.62
50087;BME280;35967;50.718;7.050;2023-04-24T16:33:08;100055.16;;;12.13;63.27
50087;BME280;35967;50.718;7.050;2023-04-24T16:43:12;100051.75;;;12.13;63.96
50087;BME280;35967;50.718;7.050;2023-04-24T16:53:16;100065.41;;;12.15;65.89
50087;BME280;35967;50.718;7.050;2023-04-24T17:03:19;100060.88;;;11.98;64.65
50087;BME280;35967;50.718;7.050;2023-04-24T17:13:24;100066.09;;;11.96;66.22
50087;BME280;35967;50.718;7.050;2023-04-24T17:23:27;100085.84;;;11.97;67.08
50087;BME280;35967;50.718;7.050;2023-04-24T17:33:31;100078.25;;;11.93;69.24
50087;BME280;35967;50.718;7.050;2023-04-24T17:43:35;100084.47;;;11.87;70.97
50087;BME280;35967;50.718;7.050;2023-04-24T17:53:39;100092.53;;;11.78;70.33
50087;BME280;35967;50.718;7.050;2023-04-24T18:03:42;100093.75;;;11.67;68.13
50087;BME280;35967;50.718;7.050;2023-04-24T18:13:47;100092.25;;;11.62;68.55
50087;BME280;35967;50.718;7.050;2023-04-24T18:23:51;100097.59;;;11.57;67.90
50087;BME280;35967;50.718;7.050;2023-04-24T18:33:57;100108.16;;;11.49;68.36
50087;BME280;35967;50.718;7.050;2023-04-24T18:44:01;100119.78;;;11.36;69.02
50087;BME280;35967;50.718;7.050;2023-04-24T18:54:05;100127.31;;;11.42;70.96
50087;BME280;35967;50.718;7.050;2023-04-24T19:04:08;100142.09;;;11.37;72.68
50087;BME280;35967;50.718;7.050;2023-04-24T19:14:13;100161.75;;;11.13;74.96
50087;BME280;35967;50.718;7.050;2023-04-24T19:24:16;100169.22;;;10.94;77.07
50087;BME280;35967;50.718;7.050;2023-04-24T19:34:23;100182.63;;;11.05;77.47
50087;BME280;35967;50.718;7.050;2023-04-24T19:44:26;100183.09;;;11.94;79.60
50087;BME280;35967;50.718;7.050;2023-04-24T19:54:31;100197.16;;;11.06;74.20
50087;BME280;35967;50.718;7.050;2023-04-24T20:04:34;100197.97;;;11.08;72.27
50087;BME280;35967;50.718;7.050;2023-04-24T20:14:39;100194.56;;;11.08;74.20
50087;BME280;35967;50.718;7.050;2023-04-24T20:24:43;100196.88;;;10.88;73.72
50087;BME280;35967;50.718;7.050;2023-04-24T20:34:48;100196.22;;;10.82;72.70
50087;BME280;35967;50.718;7.050;2023-04-24T20:44:51;100211.47;;;10.88;74.69
50087;BME280;35967;50.718;7.050;2023-04-24T20:54:56;100205.91;;;10.73;76.99
50087;BME280;35967;50.718;7.050;2023-04-24T21:05:00;100208.94;;;10.58;78.41
50087;BME280;35967;50.718;7.050;2023-04-24T21:15:05;100210.06;;;10.48;78.79
50087;BME280;35967;50.718;7.050;2023-04-24T21:25:09;100210.19;;;10.45;77.69
50087;BME280;35967;50.718;7.050;2023-04-24T21:35:13;100202.47;;;10.45;78.40
50087;BME280;35967;50.718;7.050;2023-04-24T21:45:16;100206.75;;;10.13;77.72
50087;BME280;35967;50.718;7.050;2023-04-24T21:55:21;100205.31;;;10.02;76.58
50087;BME280;35967;50.718;7.050;2023-04-24T22:05:24;100204.50;;;10.00;76.16
50087;BME280;35967;50.718;7.050;2023-04-24T22:15:29;100203.56;;;10.04;75.82
50087;BME280;35967;50.718;7.050;2023-04-24T22:25:34;100202.81;;;9.99;75.72
50087;BME280;35967;50.718;7.050;2023-04-24T22:35:38;100202.91;;;9.96;75.22
50087;BME280;35967;50.718;7.050;2023-04-24T22:45:41;100203.16;;;9.87;75.18
50087;BME280;35967;50.718;7.050;2023-04-24T22:55:45;100204.38;;;9.73;74.66
50087;BME280;35967;50.718;7.050;2023-04-24T23:05:48;100204.06;;;9.51;75.81
50087;BME280;35967;50.718;7.050;2023-04-24T23:15:52;100206.44;;;9.59;75.55
50087;BME280;35967;50.718;7.050;2023-04-24T23:25:55;100209.22;;;9.50;76.20
50087;BME280;35967;50.718;7.050;2023-04-24T23:36:00;100205.88;;;9.47;75.43
50087;BME280;35967;50.718;7.050;2023-04-24T23:46:03;100211.38;;;9.32;75.44
50087;BME280;35967;50.718;7.050;2023-04-24T23:56:08;100208.59;;;9.41;75.39
